Time;durP1;ratioP1;P1;durP2;ratioP2;P2;SDS_P1;SDS_P2;PMS_P1;PMS_P2;Temp;Humidity;BMP_temperature;BMP_pressure;BME280_temperature;BME280_humidity;BME280_pressure;Samples;Min_cycle;Max_cycle;Signal;HPM_P1;HPM_P2
2022/03/19 00:02:37;;;;;;;60.50;31.05;;;;;;;7.51;100.00;102751.41;4861927;29;20056;-71
2022/03/19 00:05:21;;;;;;;57.45;30.83;;;;;;;7.48;100.00;102750.69;4861848;29;20102;-71
2022/03/19 00:08:05;;;;;;;56.70;30.85;;;;;;;7.47;100.00;102748.97;4862903;29;20459;-71
2022/03/19 00:10:48;;;;;;;56.70;32.17;;;;;;;7.48;100.00;102751.53;4848515;29;20052;-71
2022/03/19 00:13:33;;;;;;;58.55;31.20;;;;;;;7.54;100.00;102751.28;4861794;29;20053;-71
2022/03/19 00:16:17;;;;;;;55.67;30.30;;;;;;;7.61;100.00;102752.72;4847737;29;20072;-71
2022/03/19 00:19:01;;;;;;;65.45;32.75;;;;;;;7.50;100.00;102747.00;4861370;29;20077;-71
2022/03/19 00:21:45;;;;;;;53.13;29.27;;;;;;;7.52;100.00;102745.19;4862649;29;20128;-71
2022/03/19 00:24:29;;;;;;;60.75;30.30;;;;;;;7.47;100.00;102755.13;4848311;29;20052;-70
2022/03/19 00:27:13;;;;;;;63.10;32.10;;;;;;;7.41;100.00;102750.09;4848818;29;20547;-71
2022/03/19 00:29:56;;;;;;;57.70;30.10;;;;;;;7.44;100.00;102749.94;4862405;29;20529;-71
2022/03/19 00:32:40;;;;;;;64.32;31.80;;;;;;;7.38;100.00;102750.19;4862163;29;20093;-70
2022/03/19 00:35:24;;;;;;;60.42;31.80;;;;;;;7.42;100.00;102746.50;4861155;29;20053;-71
2022/03/19 00:38:08;;;;;;;50.55;27.83;;;;;;;7.31;100.00;102754.06;4862600;29;20073;-71
2022/03/19 00:40:52;;;;;;;59.42;30.15;;;;;;;7.19;100.00;102741.25;4861053;29;20117;-71
2022/03/19 00:43:36;;;;;;;54.55;31.38;;;;;;;7.22;100.00;102742.94;4860932;29;20109;-71
2022/03/19 00:46:20;;;;;;;54.13;29.67;;;;;;;7.28;100.00;102743.53;4861204;29;20479;-71
2022/03/19 00:49:04;;;;;;;60.17;31.75;;;;;;;7.19;100.00;102738.63;4861126;29;20418;-71
2022/03/19 00:51:48;;;;;;;54.22;30.23;;;;;;;7.21;100.00;102730.59;4861135;29;20109;-71
2022/03/19 00:54:32;;;;;;;64.40;31.73;;;;;;;7.26;100.00;102734.78;4861084;29;20048;-71
2022/03/19 00:57:16;;;;;;;59.08;29.77;;;;;;;7.25;100.00;102738.38;4861008;29;20421;-71
2022/03/19 00:59:59;;;;;;;53.35;30.02;;;;;;;7.22;100.00;102733.19;4860966;29;20109;-71
2022/03/19 01:02:44;;;;;;;60.47;28.92;;;;;;;7.21;100.00;102731.47;4860885;29;20048;-71
2022/03/19 01:05:28;;;;;;;52.90;27.75;;;;;;;7.19;100.00;102737.75;4861602;29;20056;-71
2022/03/19 01:08:12;;;;;;;54.10;28.88;;;;;;;7.16;100.00;102733.44;4860855;29;20060;-71
2022/03/19 01:10:56;;;;;;;49.83;27.55;;;;;;;7.10;100.00;102733.69;4861587;29;20053;-71
2022/03/19 01:13:40;;;;;;;55.70;29.45;;;;;;;7.08;100.00;102729.38;4860587;29;20471;-71
2022/03/19 01:16:27;;;;;;;50.53;28.05;;;;;;;7.12;100.00;102730.97;4860722;29;20080;-71
2022/03/19 01:19:11;;;;;;;51.83;28.15;;;;;;;7.16;100.00;102744.06;4861507;29;20194;-71
2022/03/19 01:21:55;;;;;;;57.67;29.10;;;;;;;7.07;100.00;102728.50;4861620;29;20044;-71
2022/03/19 01:24:39;;;;;;;52.42;27.20;;;;;;;7.10;100.00;102731.03;4860271;29;20105;-71
2022/03/19 01:27:23;;;;;;;54.28;27.48;;;;;;;7.07;100.00;102728.50;4859992;29;20056;-71
2022/03/19 01:30:08;;;;;;;50.75;26.40;;;;;;;7.06;100.00;102721.47;4861522;29;20056;-71
2022/03/19 01:32:52;;;;;;;57.72;27.27;;;;;;;7.04;100.00;102728.66;4861236;29;20082;-71
2022/03/19 01:35:36;;;;;;;49.65;27.10;;;;;;;7.01;100.00;102720.81;4861490;29;20117;-71
2022/03/19 01:38:21;;;;;;;52.05;27.20;;;;;;;6.92;100.00;102731.81;4847409;29;20048;-71
2022/03/19 01:41:05;;;;;;;53.72;28.10;;;;;;;6.87;100.00;102720.50;4860464;29;20147;-71
2022/03/19 01:43:49;;;;;;;48.47;27.15;;;;;;;6.93;100.00;102720.25;4860241;29;20052;-71
2022/03/19 01:46:55;;;;;;;50.25;27.35;;;;;;;6.94;100.00;102714.03;4861155;29;20076;-71
2022/03/19 01:49:39;;;;;;;50.80;26.83;;;;;;;6.95;100.00;102720.19;4861261;29;20047;-70
2022/03/19 01:52:23;;;;;;;53.65;29.08;;;;;;;6.89;100.00;102723.94;4860314;29;20053;-71
2022/03/19 01:55:08;;;;;;;52.38;27.67;;;;;;;6.91;100.00;102716.81;4847271;29;20053;-71
2022/03/19 01:57:54;;;;;;;48.50;26.42;;;;;;;6.98;100.00;102712.97;4861237;29;20105;-71
2022/03/19 02:00:38;;;;;;;48.72;28.05;;;;;;;6.97;100.00;102711.25;4859881;29;20052;-71
2022/03/19 02:03:23;;;;;;;54.60;27.48;;;;;;;6.97;100.00;102713.06;4860052;29;20057;-71
2022/03/19 02:06:07;;;;;;;51.63;26.67;;;;;;;6.96;100.00;102722.78;4847062;29;20132;-71
2022/03/19 02:08:52;;;;;;;48.78;25.48;;;;;;;6.97;100.00;102718.34;4860103;29;20065;-71
2022/03/19 02:11:36;;;;;;;53.83;26.92;;;;;;;6.99;100.00;102714.69;4860202;29;20060;-71
2022/03/19 02:14:20;;;;;;;52.92;27.58;;;;;;;7.05;100.00;102709.16;4860117;29;20071;-71
2022/03/19 02:17:05;;;;;;;49.45;26.13;;;;;;;7.04;100.00;102711.84;4860114;29;20055;-71
2022/03/19 02:19:53;;;;;;;55.22;27.23;;;;;;;6.96;100.00;102713.97;4860783;29;20056;-71
2022/03/19 02:22:37;;;;;;;48.28;26.67;;;;;;;6.95;100.00;102705.16;4846746;29;20065;-71
2022/03/19 02:25:35;;;;;;;50.38;26.48;;;;;;;6.97;100.00;102716.56;4860048;29;20102;-71
2022/03/19 02:28:20;;;;;;;49.58;26.67;;;;;;;7.00;100.00;102711.16;4860957;29;20101;-71
2022/03/19 02:31:04;;;;;;;53.63;27.17;;;;;;;6.98;100.00;102712.97;4861192;29;20078;-71
2022/03/19 02:33:48;;;;;;;54.33;27.23;;;;;;;7.03;100.00;102711.00;4859917;29;20512;-71
2022/03/19 02:36:32;;;;;;;48.63;25.88;;;;;;;7.00;100.00;102705.84;4859651;29;20080;-71
2022/03/19 02:39:24;;;;;;;48.78;27.02;;;;;;;7.07;100.00;102696.69;4861732;29;20520;-72
2022/03/19 02:42:08;;;;;;;49.63;26.77;;;;;;;6.94;100.00;102703.44;4863123;29;20048;-72
2022/03/19 02:44:52;;;;;;;48.70;26.70;;;;;;;6.93;100.00;102693.75;4863053;29;20105;-73
2022/03/19 02:47:56;;;;;;;53.45;27.75;;;;;;;6.90;100.00;102685.06;4864063;29;20056;-72
2022/03/19 02:50:40;;;;;;;50.90;26.17;;;;;;;6.89;100.00;102685.97;4864152;29;20101;-72
2022/03/19 02:53:24;;;;;;;55.50;26.65;;;;;;;6.92;100.00;102685.84;4863212;29;20121;-72
2022/03/19 02:56:08;;;;;;;44.88;26.40;;;;;;;6.87;100.00;102680.72;4862923;29;20528;-72
2022/03/19 02:58:52;;;;;;;51.42;26.92;;;;;;;6.93;100.00;102683.13;4863763;29;20053;-73
2022/03/19 03:01:37;;;;;;;47.60;26.42;;;;;;;6.97;100.00;102679.44;4864070;29;20136;-73
2022/03/19 03:04:21;;;;;;;56.92;27.65;;;;;;;6.97;100.00;102684.72;4862919;29;20110;-73
2022/03/19 03:07:05;;;;;;;45.65;25.35;;;;;;;6.96;100.00;102685.66;4863132;29;20057;-72
2022/03/19 03:09:48;;;;;;;53.10;27.60;;;;;;;6.91;100.00;102685.00;4862576;29;20060;-72
2022/03/19 03:12:33;;;;;;;50.22;26.38;;;;;;;6.86;100.00;102681.66;4862887;29;20117;-72
2022/03/19 03:15:17;;;;;;;51.75;26.38;;;;;;;6.85;100.00;102687.88;4862780;29;20079;-72
2022/03/19 03:18:01;;;;;;;50.63;26.67;;;;;;;6.82;100.00;102672.13;4862767;29;20068;-72
2022/03/19 03:20:46;;;;;;;50.58;26.33;;;;;;;6.87;100.00;102677.22;4863652;29;20084;-72
2022/03/19 03:23:31;;;;;;;52.38;28.02;;;;;;;6.93;100.00;102677.84;4862548;29;20109;-72
2022/03/19 03:26:15;;;;;;;59.35;27.92;;;;;;;6.87;100.00;102675.41;4862401;29;20141;-72
2022/03/19 03:28:59;;;;;;;53.15;28.40;;;;;;;6.87;100.00;102672.78;4862258;29;20052;-72
2022/03/19 03:31:43;;;;;;;52.65;27.85;;;;;;;6.86;100.00;102676.34;4862615;29;20084;-72
2022/03/19 03:34:26;;;;;;;53.08;26.95;;;;;;;6.86;100.00;102676.34;4862472;29;20477;-72
2022/03/19 03:37:10;;;;;;;51.20;27.10;;;;;;;6.81;100.00;102682.78;4863207;29;20461;-72
2022/03/19 03:39:54;;;;;;;48.08;26.58;;;;;;;6.75;100.00;102678.59;4862086;29;20109;-73
2022/03/19 03:42:40;;;;;;;49.88;27.92;;;;;;;6.70;100.00;102675.28;4863322;29;20101;-72
2022/03/19 03:45:28;;;;;;;55.97;27.08;;;;;;;6.72;100.00;102677.84;4849443;29;20045;-73
2022/03/19 03:48:11;;;;;;;52.13;28.10;;;;;;;6.75;100.00;102667.97;4862267;29;20110;-73
2022/03/19 03:50:56;;;;;;;51.85;27.13;;;;;;;6.74;100.00;102671.56;4861959;29;20061;-72
2022/03/19 03:53:40;;;;;;;54.17;27.20;;;;;;;6.72;100.00;102662.81;4861908;29;20093;-73
2022/03/19 03:56:25;;;;;;;56.25;27.48;;;;;;;6.65;100.00;102668.44;4849389;29;20137;-72
2022/03/19 03:59:10;;;;;;;48.35;26.63;;;;;;;6.64;100.00;102667.53;4861993;29;20145;-73
2022/03/19 04:01:54;;;;;;;49.38;27.63;;;;;;;6.64;100.00;102670.19;4862918;29;20052;-73
2022/03/19 04:04:38;;;;;;;;;;;;;;;6.64;100.00;102659.59;4862317;29;20053;-73
2022/03/19 04:07:23;;;;;;;52.60;27.07;;;;;;;6.66;100.00;102660.41;4848910;29;19967;-73
2022/03/19 04:10:07;;;;;;;53.78;28.27;;;;;;;6.57;100.00;102654.63;4861810;29;20437;-73
2022/03/19 04:12:51;;;;;;;52.35;26.73;;;;;;;6.66;100.00;102656.91;4861607;29;20105;-73
2022/03/19 04:15:35;;;;;;;53.20;27.77;;;;;;;6.70;100.00;102661.13;4862018;29;20045;-73
2022/03/19 04:18:19;;;;;;;50.55;27.00;;;;;;;6.66;100.00;102657.75;4862747;29;20493;-72
2022/03/19 04:21:03;;;;;;;52.38;26.70;;;;;;;6.60;100.00;102658.00;4861434;29;20057;-72
2022/03/19 04:23:47;;;;;;;59.40;28.58;;;;;;;6.60;100.00;102652.72;4848222;29;20101;-72
2022/03/19 04:26:31;;;;;;;54.25;28.70;;;;;;;6.59;100.00;102650.97;4862587;29;20141;-72
2022/03/19 04:29:15;;;;;;;57.60;28.10;;;;;;;6.54;100.00;102649.41;4861256;29;20132;-72
2022/03/19 04:31:59;;;;;;;51.65;27.60;;;;;;;6.60;100.00;102663.31;4861529;29;20425;-72
2022/03/19 04:34:43;;;;;;;55.40;27.90;;;;;;;6.57;100.00;102652.81;4861689;29;20528;-72
2022/03/19 04:37:27;;;;;;;49.42;26.58;;;;;;;6.53;100.00;102659.16;4862170;29;20437;-72
2022/03/19 04:40:11;;;;;;;54.38;28.75;;;;;;;6.44;100.00;102661.31;4861196;29;20113;-73
2022/03/19 04:42:55;;;;;;;47.15;26.35;;;;;;;6.49;100.00;102660.22;4861216;29;20422;-72
2022/03/19 04:45:39;;;;;;;54.45;26.27;;;;;;;6.43;100.00;102654.28;4862089;29;20125;-72
2022/03/19 04:48:23;;;;;;;54.90;27.58;;;;;;;6.34;100.00;102652.88;4861194;29;20052;-73
2022/03/19 04:51:07;;;;;;;50.00;27.02;;;;;;;6.25;100.00;102655.88;4861170;29;20099;-72
2022/03/19 04:53:51;;;;;;;;;;;;;;;6.28;100.00;102650.44;4861332;29;20575;-72
2022/03/19 04:56:35;;;;;;;54.97;28.57;;;;;;;6.16;100.00;102653.56;4860814;29;19923;-72
2022/03/19 04:59:19;;;;;;;55.08;28.05;;;;;;;6.09;100.00;102654.75;4848011;29;20132;-72
2022/03/19 05:02:03;;;;;;;53.95;27.92;;;;;;;6.09;100.00;102654.75;4860101;29;20105;-72
2022/03/19 05:04:47;;;;;;;52.55;26.95;;;;;;;6.16;100.00;102650.91;4861583;29;20543;-72
2022/03/19 05:07:35;;;;;;;48.40;26.48;;;;;;;6.14;100.00;102652.78;4860674;29;20430;-72
2022/03/19 05:13:22;;;;;;;53.35;26.83;;;;;;;6.11;100.00;102652.03;4860978;29;20052;-72
2022/03/19 05:16:06;;;;;;;51.35;27.08;;;;;;;6.18;100.00;102641.13;4860793;29;20470;-72
2022/03/19 05:18:50;;;;;;;52.45;28.05;;;;;;;6.20;100.00;102639.31;4861448;29;20106;-72
2022/03/19 05:21:35;;;;;;;51.90;27.63;;;;;;;6.23;100.00;102641.81;4860715;29;20056;-72
2022/03/19 05:24:19;;;;;;;52.10;27.63;;;;;;;6.17;100.00;102647.34;4860455;29;20113;-72
2022/03/19 05:27:03;;;;;;;50.13;26.52;;;;;;;6.14;100.00;102636.88;4861334;29;20185;-72
2022/03/19 05:29:47;;;;;;;54.83;29.20;;;;;;;6.14;100.00;102650.13;4860249;29;20076;-72
2022/03/19 05:32:31;;;;;;;54.92;27.58;;;;;;;6.09;100.00;102646.81;4860549;29;20095;-72
2022/03/19 05:35:16;;;;;;;54.80;28.38;;;;;;;6.09;100.00;102649.47;4860747;29;20053;-72
2022/03/19 05:38:00;;;;;;;51.33;26.92;;;;;;;6.14;100.00;102642.19;4860418;29;20562;-72
2022/03/19 05:40:44;;;;;;;53.40;27.35;;;;;;;6.24;100.00;102640.91;4861010;29;20114;-72
2022/03/19 05:43:28;;;;;;;51.00;27.27;;;;;;;6.30;100.00;102638.03;4860310;29;20413;-72
2022/03/19 05:46:12;;;;;;;50.50;27.67;;;;;;;6.33;100.00;102632.59;4860623;29;20056;-72
2022/03/19 05:48:56;;;;;;;57.00;26.77;;;;;;;6.31;100.00;102618.56;4860233;29;20482;-72
2022/03/19 05:51:40;;;;;;;50.53;26.08;;;;;;;6.33;100.00;102632.59;4861031;29;20133;-73
2022/03/19 05:54:25;;;;;;;54.08;27.70;;;;;;;6.38;100.00;102614.72;4860062;29;20428;-72
2022/03/19 05:57:09;;;;;;;53.72;27.40;;;;;;;6.50;100.00;102630.16;4861247;29;20469;-72
2022/03/19 05:59:53;;;;;;;52.10;26.70;;;;;;;6.44;100.00;102622.44;4859919;29;20056;-73
2022/03/19 06:02:41;;;;;;;49.60;27.75;;;;;;;6.52;100.00;102623.00;4861207;29;20060;-72
2022/03/19 06:05:25;;;;;;;50.35;27.10;;;;;;;6.46;100.00;102623.22;4861199;29;20156;-72
2022/03/19 06:08:09;;;;;;;51.80;27.65;;;;;;;6.48;100.00;102625.81;4860409;29;20052;-72
2022/03/19 06:10:53;;;;;;;54.85;26.98;;;;;;;6.48;100.00;102620.53;4859919;29;20048;-72
2022/03/19 06:13:37;;;;;;;49.47;26.38;;;;;;;6.53;100.00;102622.06;4861697;29;20102;-72
2022/03/19 06:16:20;;;;;;;;;;;;;;;6.56;100.00;102624.59;4864031;29;20053;-72
2022/03/19 06:19:04;;;;;;;57.90;27.60;;;;;;;6.55;100.00;102622.00;4864747;29;20281;-72
2022/03/19 06:21:49;;;;;;;51.60;26.48;;;;;;;6.56;100.00;102624.59;4864517;29;20101;-72
2022/03/19 06:24:32;;;;;;;54.28;29.10;;;;;;;6.50;100.00;102626.63;4863395;29;20060;-72
2022/03/19 06:27:16;;;;;;;51.28;28.20;;;;;;;6.49;100.00;102633.72;4864579;29;20102;-72
2022/03/19 06:30:01;;;;;;;50.55;26.25;;;;;;;6.48;100.00;102637.28;4863642;29;20074;-73
2022/03/19 06:32:45;;;;;;;54.80;29.30;;;;;;;6.56;100.00;102619.28;4863618;29;20056;-72
2022/03/19 06:38:32;;;;;;;54.53;26.35;;;;;;;6.65;100.00;102637.47;4863515;29;20420;-72
2022/03/19 06:41:16;;;;;;;46.85;26.48;;;;;;;6.69;100.00;102636.41;4864177;29;20101;-73
2022/03/19 06:44:00;;;;;;;52.38;28.70;;;;;;;6.65;100.00;102634.81;4864219;29;20060;-73
2022/03/19 06:46:44;;;;;;;49.90;26.10;;;;;;;6.73;100.00;102638.03;4863373;29;20562;-73
2022/03/19 06:49:28;;;;;;;57.42;29.02;;;;;;;6.77;100.00;102638.75;4849939;29;20076;-73
2022/03/19 06:52:12;;;;;;;47.78;26.70;;;;;;;6.84;100.00;102624.31;4864140;29;20061;-72
2022/03/19 06:54:56;;;;;;;;;;;;;;;6.83;100.00;102628.75;4864320;29;20056;-72
2022/03/19 06:57:40;;;;;;;49.92;26.33;;;;;;;6.89;100.00;102644.41;4863899;29;20345;-72
2022/03/19 07:00:25;;;;;;;49.20;26.50;;;;;;;7.00;100.00;102634.22;4863820;29;20145;-72
2022/03/19 07:03:09;;;;;;;51.83;26.42;;;;;;;7.05;100.00;102632.22;4849972;29;20052;-72
2022/03/19 07:05:52;;;;;;;53.42;29.25;;;;;;;7.12;100.00;102630.19;4863068;29;20056;-72
2022/03/19 07:08:36;;;;;;;46.97;27.27;;;;;;;7.25;100.00;102628.72;4863158;29;20094;-72
2022/03/19 07:11:20;;;;;;;45.28;25.92;;;;;;;7.37;100.00;102625.56;4863653;29;20558;-72
2022/03/19 07:14:05;;;;;;;50.38;27.77;;;;;;;7.47;100.00;102637.50;4862888;29;20063;-72
2022/03/19 07:16:49;;;;;;;50.97;26.20;;;;;;;7.53;100.00;102631.88;4863876;29;20558;-72
2022/03/19 07:19:34;;;;;;;45.20;25.85;;;;;;;7.65;100.00;102626.91;4862464;29;20425;-72
2022/03/19 07:22:18;;;;;;;49.78;25.65;;;;;;;7.72;100.00;102628.34;4862769;29;20105;-72
2022/03/19 07:25:02;;;;;;;51.17;26.58;;;;;;;7.82;100.00;102622.53;4862784;29;20452;-72
2022/03/19 07:27:46;;;;;;;48.90;26.52;;;;;;;7.91;100.00;102618.59;4863360;29;20433;-72
2022/03/19 07:30:30;;;;;;;47.40;26.70;;;;;;;7.95;100.00;102618.38;4862531;29;20512;-72
2022/03/19 07:33:14;;;;;;;45.05;25.10;;;;;;;8.03;100.00;102624.22;4862551;29;20055;-72
2022/03/19 07:35:58;;;;;;;43.65;25.83;;;;;;;8.11;100.00;102630.03;4862250;29;20101;-72
2022/03/19 07:38:42;;;;;;;43.50;24.95;;;;;;;8.17;100.00;102621.75;4862262;29;20192;-72
2022/03/19 07:44:30;;;;;;;48.13;25.23;;;;;;;8.34;100.00;102621.00;4862993;29;20133;-72
2022/03/19 07:47:15;;;;;;;42.85;24.08;;;;;;;8.43;100.00;102612.56;4862596;29;20064;-72
2022/03/19 07:49:59;;;;;;;44.13;23.92;;;;;;;8.52;100.00;102614.78;4849230;29;20513;-72
2022/03/19 07:52:43;;;;;;;43.65;24.10;;;;;;;8.61;100.00;102622.31;4862985;29;20494;-72
2022/03/19 07:55:27;;;;;;;45.05;22.73;;;;;;;8.70;100.00;102627.19;4862894;29;20076;-72
2022/03/19 07:58:11;;;;;;;43.70;23.95;;;;;;;8.76;99.91;102629.56;4862333;29;20117;-72
2022/03/19 08:00:56;;;;;;;37.90;22.60;;;;;;;8.89;97.69;102622.69;4861929;29;20075;-72
2022/03/19 08:03:40;;;;;;;41.15;23.70;;;;;;;8.91;98.01;102615.47;4862695;29;20611;-72
2022/03/19 08:06:24;;;;;;;45.70;22.35;;;;;;;8.97;94.34;102612.50;4861744;29;20217;-72
2022/03/19 08:09:08;;;;;;;;;;;;;;;9.05;92.25;102616.50;4863429;29;20136;-73
2022/03/19 08:11:52;;;;;;;40.00;22.37;;;;;;;9.09;90.58;102614.53;4862010;29;19923;-73
2022/03/19 08:14:36;;;;;;;39.90;21.85;;;;;;;9.23;90.16;102620.00;4861823;29;20106;-72
2022/03/19 08:17:20;;;;;;;34.83;20.75;;;;;;;9.28;86.71;102608.19;4861513;29;20088;-72
2022/03/19 08:20:06;;;;;;;37.55;21.75;;;;;;;9.32;85.29;102612.44;4861628;29;20144;-72
2022/03/19 08:22:50;;;;;;;37.30;21.13;;;;;;;9.37;83.08;102596.22;4861702;29;20056;-72
2022/03/19 08:25:34;;;;;;;39.10;21.75;;;;;;;9.40;83.64;102604.03;4848860;29;20092;-72
2022/03/19 08:28:18;;;;;;;38.97;22.15;;;;;;;9.50;81.56;102591.94;4861407;29;20569;-72
2022/03/19 08:31:02;;;;;;;36.30;20.83;;;;;;;9.54;80.64;102590.84;4861166;29;20520;-72
2022/03/19 08:33:45;;;;;;;36.67;21.05;;;;;;;9.56;77.77;102583.66;4861244;29;20562;-71
2022/03/19 08:36:29;;;;;;;38.10;22.42;;;;;;;9.51;77.11;102580.34;4861578;29;20517;-72
2022/03/19 08:42:17;;;;;;;41.45;20.85;;;;;;;9.60;77.66;102585.19;4861409;29;20536;-71
2022/03/19 08:45:01;;;;;;;42.50;21.73;;;;;;;9.80;78.20;102590.31;4861224;29;20092;-71
2022/03/19 08:47:45;;;;;;;37.45;21.80;;;;;;;9.84;75.58;102578.53;4861866;29;20048;-70
2022/03/19 08:50:29;;;;;;;43.33;21.90;;;;;;;10.00;76.93;102580.25;4860853;29;20056;-70
2022/03/19 08:53:14;;;;;;;39.50;21.88;;;;;;;10.05;77.08;102577.38;4862165;29;20068;-70
2022/03/19 08:55:58;;;;;;;39.47;22.75;;;;;;;10.09;74.64;102581.59;4861071;29;20554;-71
2022/03/19 08:58:48;;;;;;;33.75;21.15;;;;;;;10.17;72.20;102582.00;5070998;28;20399;-70
2022/03/19 09:01:32;;;;;;;39.33;22.50;;;;;;;10.34;71.35;102580.97;5069633;28;20047;-69
2022/03/19 09:04:17;;;;;;;41.63;21.55;;;;;;;10.43;69.62;102567.13;5070788;28;20051;-70
2022/03/19 09:07:00;;;;;;;39.13;22.05;;;;;;;10.45;69.08;102567.88;5069796;28;20090;-70
2022/03/19 09:09:45;;;;;;;41.25;23.95;;;;;;;10.54;69.48;102572.69;5071684;28;20044;-70
2022/03/19 09:12:29;;;;;;;41.78;23.05;;;;;;;10.53;67.79;102559.47;5069445;28;20131;-70
2022/03/19 09:15:13;;;;;;;40.28;24.55;;;;;;;10.69;67.00;102569.16;5070658;28;20107;-70
2022/03/19 09:17:58;;;;;;;38.33;22.55;;;;;;;10.77;65.66;102558.88;5069275;28;20064;-70
2022/03/19 09:20:42;;;;;;;39.17;23.88;;;;;;;10.82;66.67;102555.94;5069191;28;20055;-69
2022/03/19 09:23:26;;;;;;;41.60;24.55;;;;;;;11.00;65.18;102555.72;5070424;28;20050;-70
2022/03/19 09:26:10;;;;;;;43.35;24.17;;;;;;;11.21;63.44;102549.06;5070360;28;20403;-70
2022/03/19 09:28:54;;;;;;;42.47;24.88;;;;;;;11.28;62.55;102558.41;5055382;28;20043;-69
2022/03/19 09:31:38;;;;;;;43.63;24.92;;;;;;;11.45;59.92;102552.91;5069032;28;20100;-69
2022/03/19 09:34:22;;;;;;;42.13;24.17;;;;;;;11.67;60.05;102547.97;5070137;28;20063;-69
2022/03/19 09:37:06;;;;;;;43.80;25.35;;;;;;;11.98;58.51;102550.41;5069034;28;20040;-70
2022/03/19 09:39:52;;;;;;;41.58;25.65;;;;;;;12.57;55.47;102535.78;5068762;28;20098;-69
2022/03/19 09:42:46;;;;;;;43.15;24.98;;;;;;;13.41;53.66;102520.94;5069048;28;20047;-70
2022/03/19 09:45:30;;;;;;;40.63;24.52;;;;;;;14.55;49.18;102511.59;5068721;28;20572;-69
2022/03/19 09:48:14;;;;;;;41.28;24.63;;;;;;;14.94;47.07;102509.44;5068893;28;20051;-70
2022/03/19 09:50:58;;;;;;;40.53;25.70;;;;;;;15.53;46.13;102496.69;5054980;28;20094;-70
2022/03/19 09:53:43;;;;;;;42.60;25.73;;;;;;;17.01;43.33;102498.44;5068577;28;20051;-70
2022/03/19 09:56:28;;;;;;;42.70;27.35;;;;;;;17.30;41.41;102483.28;5068210;28;20570;-70
2022/03/19 09:59:12;;;;;;;41.97;26.98;;;;;;;17.28;40.99;102485.28;5068548;28;20527;-69
2022/03/19 10:01:56;;;;;;;40.28;27.92;;;;;;;17.29;41.37;102464.56;5069381;28;20052;-70
2022/03/19 10:04:40;;;;;;;43.67;28.75;;;;;;;17.28;40.38;102471.78;5068766;28;20094;-70
2022/03/19 10:10:31;;;;;;;50.92;34.25;;;;;;;18.00;39.77;102443.66;5054724;28;20051;-69
2022/03/19 10:13:14;;;;;;;41.50;28.35;;;;;;;18.19;39.54;102454.50;5055135;28;20075;-70
2022/03/19 10:15:58;;;;;;;40.15;28.30;;;;;;;19.39;37.28;102442.97;5056055;28;20048;-70
2022/03/19 10:18:42;;;;;;;;;;;;;;;18.53;37.77;102439.59;5056091;28;20171;-70
2022/03/19 10:21:27;;;;;;;41.43;27.93;;;;;;;19.20;37.95;102440.34;5055677;28;19923;-70
2022/03/19 10:24:26;;;;;;;41.42;29.02;;;;;;;19.70;36.24;102442.53;5040755;28;20273;-70
2022/03/19 10:27:17;;;;;;;44.63;28.27;;;;;;;20.22;35.63;102446.38;5054891;28;20098;-70
2022/03/19 10:30:04;;;;;;;43.85;29.60;;;;;;;20.55;35.97;102432.09;5054417;28;20051;-71
2022/03/19 10:32:51;;;;;;;43.53;28.90;;;;;;;21.82;33.69;102438.34;5055831;28;20052;-70
2022/03/19 10:35:36;;;;;;;47.20;31.90;;;;;;;20.63;34.24;102430.28;5054687;28;20052;-70
2022/03/19 10:38:23;;;;;;;40.55;29.48;;;;;;;21.19;33.78;102423.44;5055551;28;20099;-70
2022/03/19 10:41:07;;;;;;;52.60;32.80;;;;;;;21.27;33.49;102425.34;5054559;28;20052;-70
2022/03/19 10:43:52;;;;;;;43.85;31.77;;;;;;;21.87;32.91;102414.25;5054717;28;20083;-70
2022/03/19 10:46:36;;;;;;;43.25;31.88;;;;;;;21.45;33.47;102407.97;5054233;28;20052;-70
2022/03/19 10:49:23;;;;;;;45.47;32.75;;;;;;;21.69;32.50;102402.66;5055410;28;20051;-70
2022/03/19 10:52:07;;;;;;;42.75;30.92;;;;;;;21.83;31.43;102393.88;5055174;28;20095;-69
2022/03/19 10:54:54;;;;;;;46.25;28.92;;;;;;;21.45;31.01;102394.41;5054093;28;20052;-70
2022/03/19 10:57:37;;;;;;;40.38;27.85;;;;;;;20.55;32.11;102372.47;5054082;28;20095;-70
2022/03/19 11:00:22;;;;;;;42.63;28.23;;;;;;;20.61;32.86;102388.13;5055025;28;20514;-70
2022/03/19 11:03:14;;;;;;;41.03;30.20;;;;;;;21.26;31.38;102370.22;5054277;28;20048;-70
2022/03/19 11:06:08;;;;;;;40.38;27.73;;;;;;;20.89;31.75;102349.88;5040062;28;20102;-70
2022/03/19 11:08:54;;;;;;;49.72;29.95;;;;;;;20.87;31.91;102361.88;5054212;28;20048;-70
2022/03/19 11:12:04;;;;;;;37.08;25.70;;;;;;;20.67;30.87;102349.53;5054203;28;20079;-70
2022/03/19 11:14:50;;;;;;;35.65;24.83;;;;;;;20.41;31.48;102348.66;5054081;28;20588;-70
2022/03/19 11:17:36;;;;;;;35.08;22.42;;;;;;;20.89;30.30;102339.03;5053945;28;20047;-70
2022/03/19 11:20:20;;;;;;;32.08;22.90;;;;;;;21.84;30.29;102344.00;5052731;28;20573;-70
2022/03/19 11:23:04;;;;;;;;;;;;;;;22.53;28.85;102321.78;5055068;28;20063;-70
2022/03/19 11:25:51;;;;;;;32.38;22.70;;;;;;;22.22;28.86;102316.16;5053808;28;19919;-70
2022/03/19 11:28:35;;;;;;;32.17;20.92;;;;;;;23.10;27.10;102321.44;5053849;28;20044;-71
2022/03/19 11:31:23;;;;;;;;;;;;;;;23.72;27.19;102315.00;5054356;28;20511;-70
2022/03/19 11:34:17;;;;;;;30.92;19.77;;;;;;;24.35;25.13;102319.13;5053661;28;19920;-70
2022/03/19 11:37:04;;;;;;;28.55;19.13;;;;;;;23.56;26.31;102308.81;5054052;28;20075;-70
2022/03/19 11:40:11;;;;;;;28.33;18.48;;;;;;;22.25;27.31;102298.66;5054411;28;20056;-70
2022/03/19 11:43:04;;;;;;;25.98;16.80;;;;;;;22.23;26.87;102290.69;5051985;28;20044;-70
2022/03/19 11:45:54;;;;;;;25.25;16.52;;;;;;;21.08;28.73;102297.25;5040477;28;20503;-70
2022/03/19 11:48:39;;;;;;;23.42;16.17;;;;;;;20.99;29.09;102292.78;5039769;28;20052;-70
2022/03/19 11:51:28;;;;;;;25.67;15.65;;;;;;;22.60;27.87;102288.28;5054564;28;20412;-70
2022/03/19 11:54:16;;;;;;;20.42;14.20;;;;;;;23.76;26.13;102275.47;5054421;28;20143;-70
2022/03/19 11:57:05;;;;;;;22.98;14.15;;;;;;;23.80;25.98;102263.19;5053820;28;20048;-70
2022/03/19 11:59:50;;;;;;;20.83;14.00;;;;;;;24.25;25.93;102269.47;5053828;28;20051;-70
2022/03/19 12:03:08;;;;;;;19.30;13.35;;;;;;;25.60;24.30;102251.59;5053169;28;20052;-70
2022/03/19 12:05:53;;;;;;;15.50;11.05;;;;;;;26.07;23.74;102262.81;5053818;28;20043;-70
2022/03/19 12:08:47;;;;;;;17.50;11.50;;;;;;;24.53;24.82;102228.78;5053821;28;20043;-70
2022/03/19 12:11:33;;;;;;;16.60;12.25;;;;;;;23.07;25.94;102242.03;5054002;28;20075;-70
2022/03/19 12:14:22;;;;;;;16.70;11.70;;;;;;;23.27;27.65;102241.44;5053661;28;20507;-70
2022/03/19 12:17:17;;;;;;;15.88;10.57;;;;;;;22.07;26.92;102211.91;5038738;28;20048;-70
2022/03/19 12:20:04;;;;;;;14.05;9.95;;;;;;;21.48;27.67;102217.66;5052623;28;20060;-70
2022/03/19 12:22:48;;;;;;;17.90;10.57;;;;;;;21.37;28.77;102220.69;5052801;28;20082;-70
2022/03/19 12:25:35;;;;;;;16.75;9.82;;;;;;;22.23;27.32;102209.19;5052814;28;20511;-70
2022/03/19 12:28:19;;;;;;;14.73;8.98;;;;;;;22.38;26.93;102196.56;5052655;28;20550;-70
2022/03/19 12:31:14;;;;;;;13.50;9.40;;;;;;;22.91;26.66;102199.44;5052426;28;20055;-71
2022/03/19 12:33:58;;;;;;;15.55;10.35;;;;;;;22.82;27.09;102205.94;5053280;28;20048;-70
2022/03/19 12:36:42;;;;;;;16.45;9.52;;;;;;;21.45;28.06;102201.72;5052772;28;20060;-70
2022/03/19 12:39:27;;;;;;;15.20;9.10;;;;;;;20.77;29.57;102193.03;5052462;28;20055;-70
2022/03/19 12:42:11;;;;;;;13.45;9.35;;;;;;;20.80;28.89;102187.28;5052260;28;20149;-70
2022/03/19 12:44:58;;;;;;;15.48;10.13;;;;;;;20.85;28.64;102183.13;5053419;28;20040;-70
2022/03/19 12:47:42;;;;;;;12.75;8.57;;;;;;;20.90;27.92;102166.31;5052722;28;20098;-70
2022/03/19 12:50:26;;;;;;;;;;;;;;;20.65;28.54;102173.53;5038506;28;20526;-70